Terminal Aerodrome Forecast
Issued by NWS

Home | Current Version | Previous Version | Text Only | Print | Product List | Glossary On
Versions: 1 2 3 4 5 6 7 8 9 10 11 12
799
FTAK31 PAJN 100526
TAFAKT
TAF
PAKT 100526Z 1006/1106 28005KT P6SM OVC050
     FM101400 32005KT P6SM FEW050
      AMD LTD TO CLD VIS AND WIND 1006/1015=

USA.gov is the U.S. government's official web portal to all federal, state and local government web resources and services.